createdAt,value
2023-04-25T00:01:24.809Z,7.20
2023-04-25T00:03:53.067Z,7.20
2023-04-25T00:06:27.481Z,7.20
2023-04-25T00:08:56.705Z,7.20
2023-04-25T00:11:24.786Z,7.20
2023-04-25T00:13:52.846Z,7.10
2023-04-25T00:16:20.638Z,7.10
2023-04-25T00:18:52.379Z,7.10
2023-04-25T00:21:23.285Z,7.10
2023-04-25T00:23:51.836Z,7.00
2023-04-25T00:26:19.913Z,7.00
2023-04-25T00:28:48.488Z,6.90
2023-04-25T00:31:16.440Z,6.80
2023-04-25T00:33:44.532Z,6.80
2023-04-25T00:36:12.394Z,6.80
2023-04-25T00:38:40.975Z,6.70
2023-04-25T00:41:09.228Z,6.70
2023-04-25T00:43:38.368Z,6.60
2023-04-25T00:46:06.269Z,6.60
2023-04-25T00:48:34.339Z,6.50
2023-04-25T00:51:02.757Z,6.40
2023-04-25T00:54:38.486Z,6.40
2023-04-25T00:57:06.671Z,6.40
2023-04-25T00:59:34.954Z,6.30
2023-04-25T01:02:03.062Z,6.30
2023-04-25T01:04:31.161Z,6.20
2023-04-25T01:06:59.604Z,6.20
2023-04-25T01:09:27.579Z,6.10
2023-04-25T01:11:55.806Z,6.00
2023-04-25T01:14:23.556Z,6.00
2023-04-25T01:16:51.883Z,5.90
2023-04-25T01:19:20.761Z,6.00
2023-04-25T01:21:49.059Z,5.90
2023-04-25T01:24:17.040Z,5.90
2023-04-25T01:26:50.419Z,5.80
2023-04-25T01:29:22.035Z,5.80
2023-04-25T01:31:50.898Z,5.70
2023-04-25T01:34:18.702Z,5.70
2023-04-25T01:36:51.401Z,5.60
2023-04-25T01:39:19.563Z,5.60
2023-04-25T01:41:48.612Z,5.60
2023-04-25T01:44:16.641Z,5.60
2023-04-25T01:46:44.826Z,5.60
2023-04-25T01:49:12.810Z,5.50
2023-04-25T01:51:42.390Z,5.40
2023-04-25T01:54:12.387Z,5.40
2023-04-25T01:56:41.263Z,5.40
2023-04-25T01:59:11.866Z,5.40
2023-04-25T02:02:15.066Z,5.40
2023-04-25T02:04:43.336Z,5.30
2023-04-25T02:07:14.337Z,5.30
2023-04-25T02:09:55.709Z,5.30
2023-04-25T02:12:27.265Z,5.30
2023-04-25T02:15:20.514Z,5.20
2023-04-25T02:17:59.050Z,5.20
2023-04-25T02:20:27.816Z,5.20
2023-04-25T02:22:55.941Z,5.20
2023-04-25T02:25:23.953Z,5.10
2023-04-25T02:27:52.468Z,5.10
2023-04-25T02:30:20.572Z,5.10
2023-04-25T02:32:48.657Z,5.10
2023-04-25T02:35:16.781Z,5.00
2023-04-25T02:37:44.591Z,4.90
2023-04-25T02:40:15.568Z,5.00
2023-04-25T02:42:43.489Z,4.90
2023-04-25T02:45:11.690Z,4.90
2023-04-25T02:47:39.454Z,4.90
2023-04-25T02:50:08.064Z,4.80
2023-04-25T02:52:36.420Z,4.80
2023-04-25T02:55:14.111Z,4.80
2023-04-25T02:57:42.285Z,4.80
2023-04-25T03:00:15.350Z,4.80
2023-04-25T03:02:44.957Z,4.70
2023-04-25T03:05:13.178Z,4.70
2023-04-25T03:09:56.642Z,4.70
2023-04-25T03:12:25.234Z,4.70
2023-04-25T03:14:53.124Z,4.70
2023-04-25T03:17:21.284Z,4.70
2023-04-25T03:19:50.877Z,4.60
2023-04-25T03:22:19.540Z,4.60
2023-04-25T03:24:48.017Z,4.60
2023-04-25T03:27:16.419Z,4.60
2023-04-25T03:29:44.513Z,4.60
2023-04-25T03:32:12.961Z,4.60
2023-04-25T03:34:43.084Z,4.60
2023-04-25T03:37:11.525Z,4.60
2023-04-25T03:39:40.045Z,4.60
2023-04-25T03:42:08.900Z,4.60
2023-04-25T03:44:36.802Z,4.50
2023-04-25T03:47:04.891Z,4.60
2023-04-25T03:49:33.614Z,4.50
2023-04-25T03:52:04.457Z,4.50
2023-04-25T03:54:37.629Z,4.50
2023-04-25T03:57:12.439Z,4.40
2023-04-25T03:59:41.706Z,4.40
2023-04-25T04:02:12.760Z,4.40
2023-04-25T04:04:41.715Z,4.30
2023-04-25T04:07:11.394Z,4.30
2023-04-25T04:09:42.048Z,4.30
2023-04-25T04:12:16.509Z,4.30
2023-04-25T04:14:44.311Z,4.30
2023-04-25T04:17:12.339Z,4.30
2023-04-25T04:19:40.275Z,4.20
2023-04-25T04:22:14.648Z,4.20
2023-04-25T04:24:45.057Z,4.20
2023-04-25T04:27:15.019Z,4.20
2023-04-25T04:30:07.016Z,4.20
2023-04-25T04:32:55.525Z,4.20
2023-04-25T04:35:26.870Z,4.20
2023-04-25T04:37:55.693Z,4.20
2023-04-25T04:40:26.591Z,4.20
2023-04-25T04:43:04.162Z,4.20
2023-04-25T04:45:32.098Z,4.20
2023-04-25T04:48:17.651Z,4.20
2023-04-25T04:51:04.333Z,4.10
2023-04-25T04:54:05.148Z,4.10
2023-04-25T04:56:57.238Z,4.10
2023-04-25T04:59:48.248Z,4.10
2023-04-25T05:02:34.763Z,4.10
2023-04-25T05:05:13.272Z,4.10
2023-04-25T05:07:58.971Z,4.10
2023-04-25T05:10:52.907Z,4.20
2023-04-25T05:13:39.177Z,4.20
2023-04-25T05:16:20.851Z,4.20
2023-04-25T05:18:53.521Z,4.20
2023-04-25T05:21:47.580Z,4.20
2023-04-25T05:24:36.361Z,4.20
2023-04-25T05:27:14.389Z,4.20
2023-04-25T05:29:54.915Z,4.30
2023-04-25T05:32:30.056Z,4.30
2023-04-25T05:34:58.447Z,4.30
2023-04-25T05:37:34.009Z,4.30
2023-04-25T05:40:13.065Z,4.30
2023-04-25T05:43:08.317Z,4.30
2023-04-25T05:45:54.772Z,4.40
2023-04-25T05:48:47.256Z,4.40
2023-04-25T05:51:32.580Z,4.50
2023-04-25T05:54:27.795Z,4.50
2023-04-25T05:57:00.373Z,4.50
2023-04-25T05:59:28.751Z,4.60
2023-04-25T06:01:56.648Z,4.70
2023-04-25T06:04:26.794Z,4.70
2023-04-25T06:06:55.860Z,4.70
2023-04-25T06:09:24.298Z,4.80
2023-04-25T06:11:54.733Z,4.80
2023-04-25T06:14:22.873Z,4.80
2023-04-25T06:16:52.272Z,4.90
2023-04-25T06:19:20.313Z,4.90
2023-04-25T06:21:48.155Z,5.00
2023-04-25T06:24:16.123Z,5.00
2023-04-25T06:26:44.000Z,5.00
2023-04-25T06:29:12.252Z,5.10
2023-04-25T06:31:40.098Z,5.10
2023-04-25T06:34:08.285Z,5.20
2023-04-25T06:36:39.052Z,5.20
2023-04-25T06:39:10.462Z,5.30
2023-04-25T06:41:38.428Z,5.30
2023-04-25T06:44:09.247Z,5.40
2023-04-25T06:46:41.667Z,5.50
2023-04-25T06:49:09.722Z,5.50
2023-04-25T06:51:37.921Z,5.50
2023-04-25T06:54:06.539Z,5.60
2023-04-25T06:56:42.459Z,5.70
2023-04-25T06:59:14.732Z,5.70
2023-04-25T07:01:44.778Z,5.80
2023-04-25T07:04:19.235Z,5.90
2023-04-25T07:06:51.809Z,6.00
2023-04-25T07:09:24.854Z,6.00
2023-04-25T07:11:53.400Z,6.10
2023-04-25T07:14:21.421Z,6.40
2023-04-25T07:16:50.667Z,6.70
2023-04-25T07:19:18.712Z,7.20
2023-04-25T07:21:46.663Z,7.70
2023-04-25T07:24:14.737Z,8.30
2023-04-25T07:26:46.707Z,8.80
2023-04-25T07:29:23.716Z,9.20
2023-04-25T07:31:51.940Z,9.60
2023-04-25T07:34:22.233Z,10.00
2023-04-25T07:36:50.349Z,10.40
2023-04-25T07:39:18.650Z,10.50
2023-04-25T07:41:46.521Z,10.70
2023-04-25T07:44:20.801Z,11.00
2023-04-25T07:46:48.671Z,11.20
2023-04-25T07:49:16.978Z,11.20
2023-04-25T07:51:46.239Z,11.20
2023-04-25T07:54:18.777Z,11.50
2023-04-25T07:56:53.928Z,11.80
2023-04-25T07:59:29.826Z,12.10
2023-04-25T08:01:59.841Z,12.30
2023-04-25T08:04:28.280Z,12.50
2023-04-25T08:07:03.628Z,12.70
2023-04-25T08:09:38.455Z,12.90
2023-04-25T08:12:11.315Z,13.10
2023-04-25T08:14:40.834Z,13.20
2023-04-25T08:17:08.821Z,13.20
2023-04-25T08:19:44.371Z,13.30
2023-04-25T08:22:20.780Z,13.40
2023-04-25T08:24:54.714Z,13.60
2023-04-25T08:27:23.497Z,13.80
2023-04-25T08:29:52.666Z,13.80
2023-04-25T08:32:22.237Z,13.80
2023-04-25T08:35:13.284Z,13.90
2023-04-25T08:37:41.216Z,14.00
2023-04-25T08:40:15.935Z,13.90
2023-04-25T08:43:12.842Z,13.80
2023-04-25T08:45:43.624Z,13.80
2023-04-25T08:48:18.057Z,13.80
2023-04-25T08:50:52.147Z,14.00
2023-04-25T08:53:28.460Z,14.20
2023-04-25T08:56:00.876Z,14.40
2023-04-25T08:58:33.058Z,14.50
2023-04-25T09:01:01.304Z,14.70
2023-04-25T09:03:33.725Z,14.80
2023-04-25T09:06:03.193Z,15.00
2023-04-25T09:08:31.216Z,15.10
2023-04-25T09:10:59.347Z,15.20
2023-04-25T09:13:28.871Z,15.10
2023-04-25T09:16:23.598Z,15.00
2023-04-25T09:19:28.418Z,15.00
2023-04-25T09:22:08.494Z,15.00
2023-04-25T09:24:44.437Z,15.00
2023-04-25T09:27:21.581Z,15.10
2023-04-25T09:30:01.662Z,15.20
2023-04-25T09:32:36.351Z,15.30
2023-04-25T09:35:05.714Z,15.40
2023-04-25T09:37:34.354Z,15.20
2023-04-25T09:40:31.865Z,14.90
2023-04-25T09:43:22.669Z,14.40
2023-04-25T09:45:54.464Z,13.70
2023-04-25T09:48:24.295Z,13.20
2023-04-25T09:51:17.361Z,12.80
2023-04-25T09:53:52.094Z,12.80
2023-04-25T09:56:36.882Z,12.60
2023-04-25T09:59:08.124Z,12.70
2023-04-25T10:01:41.429Z,13.00
2023-04-25T10:04:20.626Z,13.20
2023-04-25T10:07:12.161Z,13.40
2023-04-25T10:09:40.960Z,13.50
2023-04-25T10:12:09.341Z,13.30
2023-04-25T10:14:37.445Z,13.10
2023-04-25T10:17:05.791Z,13.20
2023-04-25T10:19:34.586Z,13.20
2023-04-25T10:22:21.431Z,13.10
2023-04-25T10:24:50.936Z,12.90
2023-04-25T10:27:19.281Z,12.70
2023-04-25T10:30:05.578Z,12.50
2023-04-25T10:32:34.309Z,12.20
2023-04-25T10:35:26.415Z,12.00
2023-04-25T10:38:11.466Z,11.80
2023-04-25T10:40:39.625Z,11.70
2023-04-25T10:43:32.225Z,11.50
2023-04-25T10:46:04.270Z,11.50
2023-04-25T10:48:32.833Z,11.40
2023-04-25T10:51:23.200Z,11.30
2023-04-25T10:54:10.132Z,11.20
2023-04-25T10:56:45.345Z,11.30
2023-04-25T10:59:16.823Z,11.40
2023-04-25T11:01:47.123Z,11.50
2023-04-25T11:04:26.010Z,11.90
2023-04-25T11:07:13.357Z,12.20
2023-04-25T11:09:41.894Z,12.20
2023-04-25T11:12:12.740Z,12.20
2023-04-25T11:17:14.308Z,12.30
2023-04-25T11:19:42.313Z,12.40
2023-04-25T11:22:11.750Z,12.50
2023-04-25T11:24:39.562Z,12.50
2023-04-25T11:27:07.970Z,12.40
2023-04-25T11:29:36.365Z,12.20
2023-04-25T11:32:05.050Z,12.10
2023-04-25T11:34:34.513Z,12.10
2023-04-25T11:37:03.722Z,12.10
2023-04-25T11:39:31.752Z,11.90
2023-04-25T11:42:00.878Z,11.80
2023-04-25T11:44:29.674Z,11.90
2023-04-25T11:46:57.861Z,12.00
2023-04-25T11:49:32.318Z,12.10
2023-04-25T11:52:00.907Z,12.20
2023-04-25T11:54:28.680Z,12.10
2023-04-25T11:56:57.769Z,12.00
2023-04-25T11:59:26.691Z,12.00
2023-04-25T12:01:58.853Z,12.10
2023-04-25T12:04:27.378Z,12.20
2023-04-25T12:06:56.588Z,12.30
2023-04-25T12:09:32.821Z,12.30
2023-04-25T12:12:06.972Z,12.20
2023-04-25T12:14:35.839Z,12.00
2023-04-25T12:17:06.395Z,11.80
2023-04-25T12:19:36.154Z,11.80
2023-04-25T12:22:19.329Z,12.00
2023-04-25T12:24:47.200Z,12.10
2023-04-25T12:27:17.617Z,12.30
2023-04-25T12:29:59.439Z,12.60
2023-04-25T12:32:30.217Z,12.90
2023-04-25T12:34:58.001Z,13.20
2023-04-25T12:37:26.030Z,13.30
2023-04-25T12:39:53.857Z,13.20
2023-04-25T12:42:21.834Z,13.00
2023-04-25T12:44:49.683Z,13.00
2023-04-25T12:47:17.792Z,12.90
2023-04-25T12:49:45.512Z,13.00
2023-04-25T12:52:13.552Z,13.20
2023-04-25T12:54:41.636Z,13.40
2023-04-25T12:57:09.805Z,13.30
2023-04-25T12:59:37.974Z,13.20
2023-04-25T13:02:05.824Z,13.00
2023-04-25T13:04:34.579Z,12.80
2023-04-25T13:07:02.392Z,12.70
2023-04-25T13:09:30.725Z,12.60
2023-04-25T13:11:59.388Z,12.70
2023-04-25T13:14:27.617Z,12.80
2023-04-25T13:16:55.715Z,13.00
2023-04-25T13:19:24.024Z,13.30
2023-04-25T13:21:51.938Z,13.50
2023-04-25T13:24:20.131Z,13.60
2023-04-25T13:26:49.980Z,13.60
2023-04-25T13:29:18.136Z,13.50
2023-04-25T13:31:46.094Z,13.20
2023-04-25T13:34:14.265Z,13.10
2023-04-25T13:36:42.096Z,13.00
2023-04-25T13:39:10.201Z,13.00
2023-04-25T13:41:38.190Z,13.10
2023-04-25T13:44:06.354Z,13.20
2023-04-25T13:49:13.199Z,13.40
2023-04-25T13:51:43.272Z,13.50
2023-04-25T13:54:11.663Z,13.50
2023-04-25T13:56:39.617Z,13.40
2023-04-25T13:59:08.014Z,13.30
2023-04-25T14:01:36.964Z,13.10
2023-04-25T14:04:05.635Z,13.00
2023-04-25T14:06:34.050Z,13.00
2023-04-25T14:09:02.419Z,13.00
2023-04-25T14:11:30.716Z,13.10
2023-04-25T14:13:58.687Z,13.30
2023-04-25T14:16:26.620Z,13.40
2023-04-25T14:18:55.611Z,13.40
2023-04-25T14:21:23.466Z,13.30
2023-04-25T14:23:51.885Z,13.20
2023-04-25T14:26:20.074Z,13.10
2023-04-25T14:28:48.081Z,13.10
2023-04-25T14:31:16.481Z,12.90
2023-04-25T14:33:44.756Z,12.90
2023-04-25T14:36:12.428Z,12.90
2023-04-25T14:38:40.475Z,12.90
2023-04-25T14:41:08.200Z,13.00
2023-04-25T14:43:37.489Z,13.20
2023-04-25T14:46:05.401Z,13.20
2023-04-25T14:48:34.025Z,13.30
2023-04-25T14:51:01.983Z,13.30
2023-04-25T14:53:30.074Z,13.40
2023-04-25T14:55:57.932Z,13.30
2023-04-25T14:58:25.925Z,13.20
2023-04-25T15:00:54.053Z,13.10
2023-04-25T15:03:23.151Z,13.10
2023-04-25T15:05:55.988Z,13.10
2023-04-25T15:08:24.041Z,13.10
2023-04-25T15:10:51.923Z,13.30
2023-04-25T15:13:20.436Z,13.30
2023-04-25T15:15:52.432Z,13.30
2023-04-25T15:18:23.896Z,13.20
2023-04-25T15:20:54.680Z,13.20
2023-04-25T15:23:22.864Z,13.20
2023-04-25T15:25:52.814Z,13.10
2023-04-25T15:28:22.432Z,13.00
2023-04-25T15:30:50.582Z,12.90
2023-04-25T15:33:18.735Z,12.80
2023-04-25T15:35:46.481Z,12.80
2023-04-25T15:38:14.478Z,12.80
2023-04-25T15:40:42.369Z,12.80
2023-04-25T15:43:15.987Z,12.90
2023-04-25T15:45:45.477Z,13.00
2023-04-25T15:48:13.804Z,13.10
2023-04-25T15:50:42.451Z,13.30
2023-04-25T15:53:11.149Z,13.40
2023-04-25T15:55:39.231Z,13.40
2023-04-25T15:58:10.032Z,13.20
2023-04-25T16:00:40.465Z,13.10
2023-04-25T16:03:11.636Z,13.00
2023-04-25T16:05:40.989Z,13.10
2023-04-25T16:08:09.131Z,13.00
2023-04-25T16:12:29.789Z,12.90
2023-04-25T16:14:58.371Z,12.90
2023-04-25T16:17:28.116Z,12.80
2023-04-25T16:19:56.759Z,12.70
2023-04-25T16:22:24.487Z,12.50
2023-04-25T16:24:52.866Z,12.50
2023-04-25T16:27:22.021Z,12.40
2023-04-25T16:29:51.469Z,12.40
2023-04-25T16:32:19.721Z,12.30
2023-04-25T16:34:50.022Z,12.30
2023-04-25T16:37:17.922Z,12.30
2023-04-25T16:39:47.529Z,12.30
2023-04-25T16:42:15.493Z,12.40
2023-04-25T16:44:43.505Z,12.40
2023-04-25T16:47:12.956Z,12.40
2023-04-25T16:49:43.110Z,12.50
2023-04-25T16:52:10.867Z,12.60
2023-04-25T16:54:38.967Z,12.60
2023-04-25T16:57:10.471Z,12.50
2023-04-25T16:59:39.141Z,12.50
2023-04-25T17:02:12.369Z,12.60
2023-04-25T17:04:41.125Z,12.50
2023-04-25T17:07:09.514Z,12.40
2023-04-25T17:09:37.558Z,12.30
2023-04-25T17:12:05.810Z,12.20
2023-04-25T17:14:36.022Z,12.20
2023-04-25T17:17:04.223Z,12.10
2023-04-25T17:19:32.455Z,12.20
2023-04-25T17:22:00.492Z,12.20
2023-04-25T17:24:28.547Z,12.20
2023-04-25T17:26:57.195Z,12.10
2023-04-25T17:29:28.064Z,12.10
2023-04-25T17:31:58.050Z,12.00
2023-04-25T17:34:26.326Z,12.00
2023-04-25T17:36:54.643Z,11.90
2023-04-25T17:41:31.828Z,11.90
2023-04-25T17:44:00.068Z,11.80
2023-04-25T17:46:29.574Z,11.90
2023-04-25T17:48:58.264Z,11.80
2023-04-25T17:51:26.664Z,11.90
2023-04-25T17:53:57.707Z,11.80
2023-04-25T17:56:27.595Z,11.70
2023-04-25T17:58:56.382Z,11.70
2023-04-25T18:01:24.365Z,11.60
2023-04-25T18:03:52.529Z,11.60
2023-04-25T18:06:20.625Z,11.60
2023-04-25T18:08:52.858Z,11.60
2023-04-25T18:11:21.090Z,11.60
2023-04-25T18:13:49.106Z,11.60
2023-04-25T18:16:17.166Z,11.50
2023-04-25T18:18:47.081Z,11.50
2023-04-25T18:21:14.896Z,11.40
2023-04-25T18:23:42.935Z,11.40
2023-04-25T18:26:13.605Z,11.30
2023-04-25T18:28:41.831Z,11.30
2023-04-25T18:31:09.705Z,11.20
2023-04-25T18:33:37.812Z,11.10
2023-04-25T18:36:06.127Z,11.00
2023-04-25T18:38:36.016Z,10.90
2023-04-25T18:41:26.957Z,10.90
2023-04-25T18:43:53.125Z,10.80
2023-04-25T18:46:24.385Z,10.70
2023-04-25T18:48:55.632Z,10.70
2023-04-25T18:51:30.428Z,10.60
2023-04-25T18:53:59.144Z,10.60
2023-04-25T18:56:27.844Z,10.50
2023-04-25T18:58:56.596Z,10.40
2023-04-25T19:01:25.936Z,10.40
2023-04-25T19:03:57.656Z,10.40
2023-04-25T19:06:29.603Z,10.30
2023-04-25T19:08:57.714Z,10.30
2023-04-25T19:11:25.847Z,10.20
2023-04-25T19:13:57.052Z,10.10
2023-04-25T19:16:26.551Z,10.10
2023-04-25T19:18:56.558Z,10.00
2023-04-25T19:21:24.327Z,10.00
2023-04-25T19:23:54.373Z,10.00
2023-04-25T19:26:22.652Z,9.90
2023-04-25T19:29:04.687Z,9.90
2023-04-25T19:31:33.902Z,9.80
2023-04-25T19:34:02.747Z,9.80
2023-04-25T19:36:30.495Z,9.70
2023-04-25T19:39:03.648Z,9.70
2023-04-25T19:41:33.665Z,9.60
2023-04-25T19:44:07.374Z,9.60
2023-04-25T19:46:36.937Z,9.50
2023-04-25T19:49:09.124Z,9.50
2023-04-25T19:51:37.375Z,9.50
2023-04-25T19:54:05.657Z,9.50
2023-04-25T19:56:33.840Z,9.40
2023-04-25T19:59:02.111Z,9.30
2023-04-25T20:01:30.565Z,9.40
2023-04-25T20:03:59.001Z,9.30
2023-04-25T20:06:27.326Z,9.30
2023-04-25T20:08:55.995Z,9.30
2023-04-25T20:11:23.929Z,9.20
2023-04-25T20:13:52.246Z,9.20
2023-04-25T20:16:21.824Z,9.10
2023-04-25T20:18:50.600Z,9.10
2023-04-25T20:21:19.538Z,9.10
2023-04-25T20:23:47.601Z,9.10
2023-04-25T20:26:15.400Z,9.10
2023-04-25T20:28:43.449Z,9.00
2023-04-25T20:31:11.992Z,9.00
2023-04-25T20:33:41.782Z,9.00
2023-04-25T20:36:10.040Z,9.00
2023-04-25T20:38:38.274Z,8.90
2023-04-25T20:41:06.035Z,8.90
2023-04-25T20:43:34.192Z,8.80
2023-04-25T20:46:02.013Z,8.80
2023-04-25T20:48:30.204Z,8.70
2023-04-25T20:51:00.265Z,8.70
2023-04-25T20:53:28.264Z,8.60
2023-04-25T20:55:55.964Z,8.60
2023-04-25T20:58:24.056Z,8.60
2023-04-25T21:00:53.450Z,8.60
2023-04-25T21:03:22.329Z,8.60
2023-04-25T21:05:53.067Z,8.50
2023-04-25T21:08:21.030Z,8.50
2023-04-25T21:10:48.883Z,8.50
2023-04-25T21:13:17.238Z,8.50
2023-04-25T21:15:45.003Z,8.50
2023-04-25T21:18:13.089Z,8.40
2023-04-25T21:20:41.438Z,8.40
2023-04-25T21:23:09.474Z,8.40
2023-04-25T21:25:37.241Z,8.40
2023-04-25T21:28:06.442Z,8.40
2023-04-25T21:30:34.646Z,8.40
2023-04-25T21:33:03.446Z,8.40
2023-04-25T21:35:31.369Z,8.40
2023-04-25T21:37:59.334Z,8.30
2023-04-25T21:40:29.472Z,8.30
2023-04-25T21:42:57.521Z,8.30
2023-04-25T21:45:25.343Z,8.30
2023-04-25T21:47:53.376Z,8.30
2023-04-25T21:50:21.234Z,8.20
2023-04-25T21:52:49.500Z,8.20
2023-04-25T21:55:17.601Z,8.20
2023-04-25T21:57:47.864Z,8.20
2023-04-25T22:00:24.413Z,8.20
2023-04-25T22:02:53.417Z,8.10
2023-04-25T22:05:22.823Z,8.00
2023-04-25T22:07:52.301Z,8.00
2023-04-25T22:10:21.870Z,8.00
2023-04-25T22:12:51.117Z,8.00
2023-04-25T22:15:21.589Z,7.90
2023-04-25T22:17:52.499Z,7.90
2023-04-25T22:20:24.209Z,7.90
2023-04-25T22:22:58.555Z,7.90
2023-04-25T22:25:26.569Z,7.80
2023-04-25T22:27:55.864Z,7.80
2023-04-25T22:30:23.755Z,7.80
2023-04-25T22:32:52.053Z,7.90
2023-04-25T22:35:19.835Z,7.90
2023-04-25T22:37:47.829Z,7.90
2023-04-25T22:40:15.683Z,7.90
2023-04-25T22:42:44.321Z,7.90
2023-04-25T22:45:12.600Z,7.90
2023-04-25T22:47:40.740Z,7.80
2023-04-25T22:50:13.857Z,7.80
2023-04-25T22:52:43.036Z,7.80
2023-04-25T22:55:12.515Z,7.80
2023-04-25T22:57:41.526Z,7.80
2023-04-25T23:00:19.856Z,7.80
2023-04-25T23:02:48.851Z,7.80
2023-04-25T23:05:16.875Z,7.80
2023-04-25T23:07:45.245Z,7.80
2023-04-25T23:10:16.025Z,7.70
2023-04-25T23:12:44.540Z,7.70
2023-04-25T23:15:13.555Z,7.60
2023-04-25T23:17:42.165Z,7.50
2023-04-25T23:20:11.348Z,7.50
2023-04-25T23:22:39.543Z,7.40
2023-04-25T23:25:08.255Z,7.40
2023-04-25T23:27:37.036Z,7.30
2023-04-25T23:30:06.345Z,7.30
2023-04-25T23:32:34.670Z,7.30
2023-04-25T23:35:02.886Z,7.30
2023-04-25T23:37:40.355Z,7.20
2023-04-25T23:40:12.673Z,7.20
2023-04-25T23:42:42.073Z,7.10
2023-04-25T23:45:10.330Z,7.10
2023-04-25T23:47:38.563Z,7.10
2023-04-25T23:50:08.048Z,7.00
2023-04-25T23:52:36.153Z,7.00
2023-04-25T23:55:05.482Z,7.00
2023-04-25T23:57:33.787Z,6.90
